Whittlesey, Wisconsin
Current Conditions -  °F | °C
As of 10:55 AM on Thursday 30 Oct 2014 (Local Time) from KMDZ Reporting Station
Overcast Overcast  
Wind Chill: 33°   Ceiling: 5500
Heat Index: 37°   Visibility: 10mi
Dew Point: 33°   Wind: 5mph
Humidity: 86%   Direction: 290°WNW
Pressure: 30.06"   Gusts: NA
Location:  45.2044°N, 90.4212°W
Report Text: KMDZ 301555Z AUTO 29004KT 10SM OVC055 03/01 A3006 RMK AO2 T00270005
Loading
Personal Weather Stations






























Interactive Weather Map
Tropical Storm Tracking
New forecast layout! Learn more

10-Day Weather Forecast

Advertisements
Track Severe Weather on mobile